Time;durP1;ratioP1;P1;durP2;ratioP2;P2;SDS_P1;SDS_P2;PMS_P1;PMS_P2;Temp;Humidity;BMP_temperature;BMP_pressure;BME280_temperature;BME280_humidity;BME280_pressure;Samples;Min_cycle;Max_cycle;Signal;HPM_P1;HPM_P2
2023/05/28 00:00:33;;;;;;;17.52;7.95;;;10.80;99.90;;;;;;5067843;28;20067;-74
2023/05/28 00:02:59;;;;;;;21.30;8.45;;;10.80;99.90;;;;;;5068143;28;20556;-72
2023/05/28 00:05:25;;;;;;;23.98;7.97;;;10.80;99.90;;;;;;5066718;28;20039;-72
2023/05/28 00:07:51;;;;;;;19.02;7.57;;;10.80;99.90;;;;;;5066326;28;20095;-72
2023/05/28 00:10:16;;;;;;;19.65;7.35;;;10.80;99.90;;;;;;5068383;28;20342;-72
2023/05/28 00:12:42;;;;;;;17.98;7.07;;;10.80;99.90;;;;;;5067270;28;20659;-72
2023/05/28 00:15:09;;;;;;;15.82;7.72;;;10.80;99.90;;;;;;5066872;28;20033;-71
2023/05/28 00:17:34;;;;;;;15.75;7.65;;;10.70;99.90;;;;;;5066173;28;20086;-73
2023/05/28 00:20:00;;;;;;;15.73;7.75;;;10.50;99.90;;;;;;5068263;28;20358;-72
2023/05/28 00:22:25;;;;;;;21.55;7.40;;;10.30;99.90;;;;;;5070288;28;20060;-72
2023/05/28 00:24:51;;;;;;;18.10;8.27;;;10.30;99.90;;;;;;5071347;28;20590;-72
2023/05/28 00:27:17;;;;;;;17.48;7.72;;;10.30;99.90;;;;;;5070858;28;20028;-72
2023/05/28 00:29:43;;;;;;;18.83;7.13;;;10.30;99.90;;;;;;5071478;28;20029;-72
2023/05/28 00:32:09;;;;;;;17.42;7.22;;;10.20;99.90;;;;;;5072189;28;20034;-71
2023/05/28 00:34:35;;;;;;;15.00;6.82;;;10.10;99.90;;;;;;5071418;28;20036;-73
2023/05/28 00:37:01;;;;;;;15.85;6.90;;;10.10;99.90;;;;;;5071990;28;20047;-72
2023/05/28 00:39:26;;;;;;;20.65;7.63;;;10.20;99.90;;;;;;5070619;28;20032;-72
2023/05/28 00:42:02;;;;;;;23.58;7.82;;;10.20;99.90;;;;;;5071074;28;20257;-71
2023/05/28 00:44:28;;;;;;;19.13;7.93;;;10.10;99.90;;;;;;5070473;28;20362;-71
2023/05/28 00:46:55;;;;;;;16.10;6.93;;;10.10;99.90;;;;;;5071096;28;20028;-71
2023/05/28 00:49:22;;;;;;;14.00;6.60;;;10.10;99.90;;;;;;5070107;28;20021;-72
2023/05/28 00:51:48;;;;;;;16.48;6.63;;;10.10;99.90;;;;;;5070926;28;20024;-71
2023/05/28 00:54:14;;;;;;;17.08;6.65;;;10.10;99.90;;;;;;5071761;28;20056;-72
2023/05/28 00:56:40;;;;;;;16.33;6.78;;;10.10;99.90;;;;;;5069415;28;20044;-71
2023/05/28 00:59:06;;;;;;;21.45;7.18;;;10.00;99.90;;;;;;5071711;28;20507;-71
2023/05/28 01:01:32;;;;;;;16.25;7.03;;;9.90;99.90;;;;;;5071368;28;20032;-70
2023/05/28 01:03:58;;;;;;;15.13;7.40;;;9.80;99.90;;;;;;5070663;28;20036;-72
2023/05/28 01:06:24;;;;;;;18.98;6.93;;;9.80;99.90;;;;;;5071590;28;20166;-71
2023/05/28 01:08:50;;;;;;;15.02;6.50;;;9.70;99.90;;;;;;5070726;28;20028;-71
2023/05/28 01:11:19;;;;;;;15.32;6.20;;;9.60;99.90;;;;;;5071401;28;20386;-71
2023/05/28 01:13:46;;;;;;;14.05;6.55;;;9.60;99.90;;;;;;5070582;28;20047;-72
2023/05/28 01:16:12;;;;;;;17.20;6.93;;;9.60;99.90;;;;;;5071301;28;20493;-72
2023/05/28 01:18:44;;;;;;;15.57;6.68;;;9.60;99.90;;;;;;5070455;28;20035;-73
2023/05/28 01:21:10;;;;;;;19.25;6.40;;;9.60;99.90;;;;;;5071283;28;20048;-72
2023/05/28 01:23:43;;;;;;;19.40;7.13;;;9.60;99.90;;;;;;5069316;28;20111;-73
2023/05/28 01:26:12;;;;;;;17.02;6.50;;;9.50;99.90;;;;;;5069850;28;20032;-71
2023/05/28 01:28:41;;;;;;;19.10;7.57;;;9.50;99.90;;;;;;5070530;28;20040;-74
2023/05/28 01:31:09;;;;;;;11.65;6.13;;;9.60;99.90;;;;;;5070695;28;20040;-72
2023/05/28 01:33:38;;;;;;;16.75;6.60;;;9.60;99.90;;;;;;5070481;28;20021;-73
2023/05/28 01:36:14;;;;;;;16.15;6.28;;;9.60;99.90;;;;;;5070785;28;20768;-71
2023/05/28 01:38:43;;;;;;;15.70;6.22;;;9.50;99.90;;;;;;5070520;28;20028;-73
2023/05/28 01:41:09;;;;;;;14.73;6.88;;;9.50;99.90;;;;;;5070694;28;20025;-71
2023/05/28 01:43:35;;;;;;;19.10;6.75;;;9.40;99.90;;;;;;5070710;28;20124;-73
2023/05/28 01:46:02;;;;;;;16.10;6.75;;;9.40;99.90;;;;;;5070152;28;20029;-71
2023/05/28 01:48:29;;;;;;;14.82;7.00;;;9.30;99.90;;;;;;5070638;28;20458;-72
2023/05/28 01:50:54;;;;;;;17.65;7.07;;;9.30;99.90;;;;;;5069938;28;20032;-72
2023/05/28 01:53:20;;;;;;;17.45;6.90;;;9.20;99.90;;;;;;5070607;28;20029;-71
2023/05/28 01:55:49;;;;;;;19.00;7.05;;;9.10;99.90;;;;;;5068202;28;20489;-71
2023/05/28 01:58:15;;;;;;;14.93;6.68;;;9.10;99.90;;;;;;5070603;28;20513;-72
2023/05/28 02:00:51;;;;;;;14.48;6.38;;;9.00;99.90;;;;;;5069698;28;20151;-71
2023/05/28 02:03:17;;;;;;;20.48;7.25;;;9.00;99.90;;;;;;5070376;28;20048;-71
2023/05/28 02:05:43;;;;;;;19.30;6.90;;;9.00;99.90;;;;;;5069650;28;20028;-71
2023/05/28 02:08:09;;;;;;;14.65;6.97;;;9.00;99.90;;;;;;5070612;28;20158;-72
2023/05/28 02:10:34;;;;;;;20.42;7.60;;;8.90;99.90;;;;;;5070293;28;20372;-71
2023/05/28 02:13:00;;;;;;;13.18;6.72;;;8.80;99.90;;;;;;5069527;28;20037;-71
2023/05/28 02:15:29;;;;;;;22.67;6.78;;;8.70;99.90;;;;;;5070107;28;20044;-71
2023/05/28 02:17:56;;;;;;;14.80;6.97;;;8.70;99.90;;;;;;5067943;28;20460;-72
2023/05/28 02:20:21;;;;;;;20.20;7.32;;;8.70;99.90;;;;;;5070168;28;20025;-71
2023/05/28 02:22:47;;;;;;;17.65;6.28;;;8.70;99.90;;;;;;5069491;28;20335;-71
2023/05/28 02:25:13;;;;;;;18.55;7.13;;;8.70;99.90;;;;;;5070073;28;20082;-72
2023/05/28 02:27:38;;;;;;;14.52;6.25;;;8.70;99.90;;;;;;5069601;28;20024;-74
2023/05/28 02:30:05;;;;;;;18.17;6.90;;;8.70;99.90;;;;;;5069387;28;20060;-72
2023/05/28 02:32:31;;;;;;;15.15;6.13;;;8.60;99.90;;;;;;5069575;28;20036;-70
2023/05/28 02:34:57;;;;;;;19.05;7.30;;;8.60;99.90;;;;;;5068969;28;20083;-71
2023/05/28 02:37:23;;;;;;;20.33;7.28;;;8.60;99.90;;;;;;5069806;28;20441;-71
2023/05/28 02:39:50;;;;;;;23.30;7.45;;;8.60;99.90;;;;;;5068768;28;20479;-72
2023/05/28 02:42:16;;;;;;;14.48;6.50;;;8.50;99.90;;;;;;5069288;28;20029;-71
2023/05/28 02:44:42;;;;;;;17.55;7.00;;;8.50;99.90;;;;;;5068179;28;20059;-74
2023/05/28 02:47:07;;;;;;;16.98;6.15;;;8.50;99.90;;;;;;5069270;28;20063;-71
2023/05/28 02:49:33;;;;;;;16.00;6.38;;;8.50;99.90;;;;;;5069570;28;20704;-71
2023/05/28 02:51:59;;;;;;;19.15;6.72;;;8.50;99.90;;;;;;5067333;28;20039;-71
2023/05/28 02:54:24;;;;;;;18.77;7.20;;;8.50;99.90;;;;;;5069508;28;20111;-72
2023/05/28 02:56:51;;;;;;;14.27;7.13;;;8.50;99.90;;;;;;5068157;28;20040;-72
2023/05/28 02:59:16;;;;;;;19.00;6.40;;;8.50;99.90;;;;;;5069241;28;20028;-72
2023/05/28 03:01:42;;;;;;;17.45;6.72;;;8.40;99.90;;;;;;5068529;28;20484;-74
2023/05/28 03:04:08;;;;;;;16.85;6.82;;;8.50;99.90;;;;;;5069098;28;20035;-71
2023/05/28 03:06:33;;;;;;;17.77;6.38;;;8.50;99.90;;;;;;5067784;28;20432;-71
2023/05/28 03:08:59;;;;;;;20.42;7.13;;;8.40;99.90;;;;;;5068425;28;20851;-72
2023/05/28 03:11:25;;;;;;;13.77;6.68;;;8.40;99.90;;;;;;5068969;28;20060;-71
2023/05/28 03:13:50;;;;;;;15.50;6.65;;;8.40;99.90;;;;;;5068332;28;20114;-70
2023/05/28 03:16:16;;;;;;;14.75;6.53;;;8.30;99.90;;;;;;5068987;28;20436;-71
2023/05/28 03:18:42;;;;;;;17.48;6.22;;;8.30;99.90;;;;;;5068639;28;20029;-73
2023/05/28 03:21:09;;;;;;;19.27;6.85;;;8.30;99.90;;;;;;5068668;28;20031;-72
2023/05/28 03:23:34;;;;;;;12.85;6.53;;;8.20;99.90;;;;;;5068949;28;20024;-71
2023/05/28 03:26:00;;;;;;;16.33;6.53;;;8.20;99.90;;;;;;5067959;28;20028;-71
2023/05/28 03:28:25;;;;;;;15.57;6.20;;;8.30;99.90;;;;;;5067433;28;20032;-71
2023/05/28 03:30:55;;;;;;;18.52;6.55;;;8.20;99.90;;;;;;5067998;28;20035;-71
2023/05/28 03:33:21;;;;;;;16.65;6.53;;;8.20;99.90;;;;;;5068830;28;20381;-71
2023/05/28 03:35:46;;;;;;;17.73;6.90;;;8.20;99.90;;;;;;5067920;28;20071;-72
2023/05/28 03:38:12;;;;;;;16.60;6.95;;;8.20;99.90;;;;;;5067413;28;20131;-71
2023/05/28 03:40:37;;;;;;;17.77;6.97;;;8.10;99.90;;;;;;5068620;28;20393;-72
2023/05/28 03:43:04;;;;;;;16.55;7.28;;;8.10;99.90;;;;;;5067962;28;20781;-72
2023/05/28 03:45:30;;;;;;;18.63;6.70;;;8.10;99.90;;;;;;5068630;28;20029;-71
2023/05/28 03:47:56;;;;;;;19.42;6.68;;;8.10;99.90;;;;;;5067895;28;20055;-71
2023/05/28 03:50:21;;;;;;;17.58;6.45;;;8.10;99.90;;;;;;5068587;28;20062;-72
2023/05/28 03:52:47;;;;;;;17.35;7.00;;;8.10;99.90;;;;;;5067882;28;20032;-74
2023/05/28 03:55:12;;;;;;;16.65;6.80;;;8.10;99.90;;;;;;5068003;28;20033;-71
2023/05/28 03:57:39;;;;;;;17.27;7.20;;;8.10;99.90;;;;;;5068600;28;20060;-72
2023/05/28 04:00:07;;;;;;;13.32;6.43;;;8.20;99.90;;;;;;5067628;28;20024;-71
2023/05/28 04:02:32;;;;;;;19.13;6.65;;;8.30;99.90;;;;;;5068411;28;20044;-72
2023/05/28 04:04:58;;;;;;;18.35;6.38;;;8.30;99.90;;;;;;5067786;28;20108;-71
2023/05/28 04:07:23;;;;;;;14.43;6.43;;;8.30;99.90;;;;;;5068451;28;20032;-72
2023/05/28 04:09:50;;;;;;;19.73;6.90;;;8.40;99.90;;;;;;5067676;28;20029;-72
2023/05/28 04:12:15;;;;;;;17.33;6.15;;;8.40;99.90;;;;;;5068072;28;20442;-72
2023/05/28 04:14:41;;;;;;;14.20;6.07;;;8.50;99.90;;;;;;5068383;28;20115;-72
2023/05/28 04:17:07;;;;;;;17.95;6.90;;;8.60;99.90;;;;;;5067571;28;20036;-72
2023/05/28 04:19:33;;;;;;;17.65;7.03;;;8.70;99.90;;;;;;5066907;28;20460;-72
2023/05/28 04:21:58;;;;;;;15.43;6.75;;;8.80;99.90;;;;;;5067425;28;20024;-72
2023/05/28 04:24:24;;;;;;;17.50;6.57;;;8.90;99.90;;;;;;5068244;28;20025;-72
2023/05/28 04:26:49;;;;;;;15.85;6.55;;;8.90;99.90;;;;;;5067470;28;20540;-73
2023/05/28 04:29:15;;;;;;;12.32;5.90;;;8.90;99.90;;;;;;5068303;28;20054;-72
2023/05/28 04:31:41;;;;;;;15.90;6.63;;;9.00;99.90;;;;;;5068198;28;20032;-71
2023/05/28 04:34:07;;;;;;;20.23;6.60;;;8.90;99.90;;;;;;5067736;28;20664;-72
2023/05/28 04:36:33;;;;;;;14.07;6.20;;;8.90;99.90;;;;;;5068088;28;20066;-72
2023/05/28 04:39:01;;;;;;;18.85;6.65;;;8.90;99.90;;;;;;5067418;28;20522;-72
2023/05/28 04:41:27;;;;;;;18.95;6.80;;;8.90;99.90;;;;;;5068104;28;20068;-72
2023/05/28 04:43:52;;;;;;;15.38;6.00;;;9.00;99.90;;;;;;5067419;28;20032;-72
2023/05/28 04:46:18;;;;;;;14.57;5.70;;;9.10;99.90;;;;;;5068095;28;20039;-72
2023/05/28 04:48:45;;;;;;;14.90;6.20;;;9.20;99.90;;;;;;5068095;28;20028;-71
2023/05/28 04:51:11;;;;;;;16.33;6.30;;;9.50;99.90;;;;;;5067364;28;20064;-72
2023/05/28 04:53:37;;;;;;;16.02;6.28;;;9.70;99.90;;;;;;5067996;28;20151;-71
2023/05/28 04:56:03;;;;;;;13.00;6.13;;;9.70;99.90;;;;;;5067161;28;20484;-72
2023/05/28 04:58:29;;;;;;;15.40;5.80;;;9.90;99.90;;;;;;5068005;28;20040;-71
2023/05/28 05:00:55;;;;;;;11.88;5.72;;;10.00;99.90;;;;;;5067156;28;20169;-72
2023/05/28 05:03:21;;;;;;;12.00;6.20;;;10.30;99.90;;;;;;5067426;28;20503;-72
2023/05/28 05:05:47;;;;;;;16.08;6.15;;;10.50;99.90;;;;;;5067891;28;20036;-74
2023/05/28 05:08:13;;;;;;;18.38;6.93;;;10.60;99.90;;;;;;5070081;28;20454;-72
2023/05/28 05:10:39;;;;;;;12.07;6.10;;;10.70;99.90;;;;;;5071292;28;20785;-71
2023/05/28 05:13:05;;;;;;;14.70;6.07;;;10.90;99.90;;;;;;5070542;28;20029;-72
2023/05/28 05:15:32;;;;;;;15.23;6.45;;;10.90;99.90;;;;;;5069779;28;20123;-72
2023/05/28 05:17:58;;;;;;;15.02;6.28;;;11.00;99.90;;;;;;5070494;28;20029;-72
2023/05/28 05:20:23;;;;;;;12.85;6.13;;;11.00;99.90;;;;;;5071304;28;20500;-72
2023/05/28 05:22:50;;;;;;;13.52;6.30;;;11.20;99.90;;;;;;5070867;28;20033;-74
2023/05/28 05:25:15;;;;;;;15.10;6.63;;;11.30;99.90;;;;;;5070902;28;20112;-72
2023/05/28 05:27:41;;;;;;;11.60;6.47;;;11.50;99.90;;;;;;5071077;28;20107;-72
2023/05/28 05:30:07;;;;;;;15.70;6.45;;;11.60;99.90;;;;;;5070056;28;20086;-72
2023/05/28 05:32:33;;;;;;;13.40;6.15;;;11.80;99.90;;;;;;5070976;28;20032;-72
2023/05/28 05:34:58;;;;;;;12.07;6.32;;;12.00;99.90;;;;;;5068654;28;20035;-72
2023/05/28 05:37:24;;;;;;;12.82;6.28;;;11.90;99.90;;;;;;5070992;28;20112;-72
2023/05/28 05:39:50;;;;;;;13.63;5.90;;;12.00;99.90;;;;;;5070671;28;20024;-74
2023/05/28 05:42:15;;;;;;;12.65;6.60;;;12.10;99.90;;;;;;5070087;28;20029;-72
2023/05/28 05:44:41;;;;;;;16.60;6.38;;;12.20;99.90;;;;;;5069349;28;20094;-72
2023/05/28 05:47:07;;;;;;;14.45;6.00;;;12.20;99.90;;;;;;5068612;28;20457;-72
2023/05/28 05:49:32;;;;;;;16.17;6.97;;;12.40;99.90;;;;;;5070769;28;20495;-73
2023/05/28 05:51:58;;;;;;;14.57;6.30;;;12.80;99.90;;;;;;5068638;28;20430;-72
2023/05/28 05:54:23;;;;;;;17.15;6.93;;;13.10;99.90;;;;;;5070634;28;20036;-73
2023/05/28 05:56:49;;;;;;;12.10;5.57;;;13.40;99.90;;;;;;5070553;28;20032;-72
2023/05/28 05:59:15;;;;;;;15.40;6.30;;;13.70;99.90;;;;;;5068680;28;20445;-73
2023/05/28 06:01:40;;;;;;;18.42;7.00;;;13.90;99.90;;;;;;5070304;28;20024;-72
2023/05/28 06:04:06;;;;;;;15.07;6.18;;;14.10;99.90;;;;;;5068467;28;20476;-72
2023/05/28 06:06:31;;;;;;;15.75;6.53;;;14.30;99.90;;;;;;5070729;28;20032;-73
2023/05/28 06:08:57;;;;;;;11.45;5.88;;;14.40;99.90;;;;;;5069617;28;20036;-73
2023/05/28 06:11:23;;;;;;;22.65;6.72;;;14.60;99.90;;;;;;5068826;28;20431;-72
2023/05/28 06:13:50;;;;;;;17.23;6.68;;;14.80;99.90;;;;;;5070208;28;20083;-73
2023/05/28 06:16:16;;;;;;;16.30;6.68;;;14.90;99.90;;;;;;5069555;28;20064;-73
2023/05/28 06:18:41;;;;;;;20.00;6.55;;;15.00;99.90;;;;;;5068587;28;20075;-73
2023/05/28 06:21:10;;;;;;;15.77;6.60;;;15.20;99.90;;;;;;5069142;28;20111;-74
2023/05/28 06:23:36;;;;;;;13.80;6.38;;;15.40;99.90;;;;;;5070020;28;20401;-73
2023/05/28 06:26:03;;;;;;;17.70;6.55;;;15.60;99.90;;;;;;5069185;28;20059;-73
2023/05/28 06:28:29;;;;;;;19.00;6.18;;;15.70;99.90;;;;;;5068588;28;20024;-73
2023/05/28 06:30:55;;;;;;;14.32;6.13;;;15.90;99.90;;;;;;5069642;28;20028;-75
2023/05/28 06:33:20;;;;;;;14.77;6.32;;;16.00;99.90;;;;;;5069747;28;20449;-73
2023/05/28 06:35:46;;;;;;;15.52;6.75;;;16.10;99.90;;;;;;5070057;28;20043;-74
2023/05/28 06:38:12;;;;;;;19.50;7.28;;;16.30;99.90;;;;;;5069302;28;20928;-73
2023/05/28 06:40:37;;;;;;;14.88;6.03;;;16.30;99.90;;;;;;5069620;28;20039;-73
2023/05/28 06:43:03;;;;;;;16.00;5.68;;;16.50;99.90;;;;;;5068905;28;20389;-72
2023/05/28 06:45:29;;;;;;;19.75;6.45;;;16.60;99.90;;;;;;5069751;28;20032;-73
2023/05/28 06:47:54;;;;;;;16.13;6.00;;;16.70;99.90;;;;;;5069291;28;20100;-75
2023/05/28 06:50:20;;;;;;;17.88;5.80;;;16.80;99.90;;;;;;5067742;28;20515;-73
2023/05/28 06:52:46;;;;;;;14.02;5.70;;;17.00;99.90;;;;;;5069559;28;20021;-74
2023/05/28 06:55:12;;;;;;;13.68;5.55;;;17.30;99.90;;;;;;5068914;28;20101;-72
2023/05/28 06:57:37;;;;;;;27.67;5.78;;;17.40;99.90;;;;;;5067980;28;20028;-73
2023/05/28 07:00:14;;;;;;;11.57;5.43;;;17.50;99.90;;;;;;5068548;28;20385;-73
2023/05/28 07:02:40;;;;;;;14.95;5.45;;;17.60;99.90;;;;;;5069005;28;20493;-73
2023/05/28 07:05:05;;;;;;;13.93;5.75;;;17.80;99.90;;;;;;5068258;28;20055;-73
2023/05/28 07:07:32;;;;;;;14.65;5.72;;;18.00;99.90;;;;;;5069090;28;20366;-72
2023/05/28 07:09:57;;;;;;;12.20;5.85;;;18.20;99.90;;;;;;5068609;28;20115;-74
2023/05/28 07:12:23;;;;;;;17.38;5.95;;;18.30;99.90;;;;;;5068768;28;20112;-72
2023/05/28 07:14:49;;;;;;;14.95;5.38;;;18.40;99.90;;;;;;5069065;28;20753;-72
2023/05/28 07:17:14;;;;;;;18.70;5.53;;;18.60;99.90;;;;;;5068216;28;20639;-73
2023/05/28 07:19:40;;;;;;;16.30;5.50;;;18.90;99.90;;;;;;5069077;28;20481;-73
2023/05/28 07:22:06;;;;;;;12.73;5.47;;;18.70;99.90;;;;;;5068473;28;20063;-72
2023/05/28 07:24:31;;;;;;;16.80;5.32;;;18.70;99.90;;;;;;5068943;28;20029;-73
2023/05/28 07:26:57;;;;;;;14.95;5.10;;;18.70;99.90;;;;;;5067196;28;20530;-74
2023/05/28 07:29:23;;;;;;;12.55;5.28;;;18.90;99.90;;;;;;5068126;28;20024;-74
2023/05/28 07:31:48;;;;;;;15.25;5.43;;;19.00;99.90;;;;;;5067381;28;20377;-73
2023/05/28 07:34:14;;;;;;;13.40;5.07;;;18.90;99.90;;;;;;5068156;28;20031;-73
2023/05/28 07:36:40;;;;;;;14.93;5.68;;;19.00;99.90;;;;;;5068792;28;20127;-73
2023/05/28 07:39:06;;;;;;;17.42;5.70;;;19.10;99.90;;;;;;5068021;28;20021;-73
2023/05/28 07:41:31;;;;;;;15.63;5.00;;;19.20;99.90;;;;;;5068863;28;20593;-73
2023/05/28 07:43:57;;;;;;;14.70;5.00;;;19.40;99.10;;;;;;5068583;28;20526;-74
2023/05/28 07:46:24;;;;;;;12.77;5.03;;;19.50;99.00;;;;;;5068186;28;20055;-73
2023/05/28 07:48:50;;;;;;;13.70;4.95;;;19.60;98.80;;;;;;5068834;28;20033;-74
2023/05/28 07:51:17;;;;;;;14.10;5.30;;;19.70;97.90;;;;;;5067884;28;20024;-73
2023/05/28 07:53:43;;;;;;;21.67;5.47;;;19.60;97.30;;;;;;5068914;28;20393;-73
2023/05/28 07:56:09;;;;;;;13.40;5.15;;;19.60;97.70;;;;;;5067588;28;20028;-73
2023/05/28 07:58:35;;;;;;;14.65;6.03;;;19.70;96.80;;;;;;5068562;28;20064;-73
2023/05/28 08:01:01;;;;;;;13.68;4.57;;;19.80;97.00;;;;;;5066561;28;20060;-74
2023/05/28 08:03:27;;;;;;;16.45;5.13;;;19.90;96.60;;;;;;5066880;28;20789;-74
2023/05/28 08:05:53;;;;;;;15.75;5.30;;;19.90;95.90;;;;;;5068483;28;20499;-73
2023/05/28 08:08:19;;;;;;;15.80;6.05;;;20.00;95.30;;;;;;5067725;28;20034;-73
2023/05/28 08:10:45;;;;;;;15.25;5.60;;;20.10;96.10;;;;;;5068431;28;20028;-73
2023/05/28 08:13:11;;;;;;;12.15;5.03;;;20.30;95.50;;;;;;5067621;28;20074;-74
2023/05/28 08:15:37;;;;;;;12.63;5.00;;;20.50;95.80;;;;;;5067992;28;20036;-73
2023/05/28 08:18:02;;;;;;;15.85;5.20;;;20.50;95.00;;;;;;5067736;28;20406;-75
2023/05/28 08:20:29;;;;;;;21.55;5.45;;;20.50;95.90;;;;;;5068398;28;20100;-73
2023/05/28 08:22:55;;;;;;;15.82;5.10;;;20.50;94.00;;;;;;5068192;28;20028;-73
2023/05/28 08:25:21;;;;;;;16.35;5.15;;;20.60;94.60;;;;;;5067303;28;20028;-74
2023/05/28 08:27:49;;;;;;;14.07;5.22;;;20.80;95.50;;;;;;5068380;28;20686;-74
2023/05/28 08:30:14;;;;;;;16.13;5.85;;;20.80;93.30;;;;;;5067804;28;20029;-73
2023/05/28 08:32:40;;;;;;;15.27;5.03;;;20.70;93.10;;;;;;5068371;28;20035;-73
2023/05/28 08:35:06;;;;;;;14.45;5.18;;;20.80;92.80;;;;;;5067465;28;20025;-73
2023/05/28 08:37:32;;;;;;;18.33;5.10;;;20.80;92.50;;;;;;5068243;28;20111;-72
2023/05/28 08:39:58;;;;;;;13.43;5.20;;;20.90;92.40;;;;;;5066488;28;20442;-75
2023/05/28 08:42:23;;;;;;;16.13;5.38;;;21.00;92.90;;;;;;5069078;28;20927;-73
2023/05/28 08:44:49;;;;;;;13.63;5.20;;;21.10;91.70;;;;;;5071777;28;20043;-73
2023/05/28 08:47:15;;;;;;;17.58;4.68;;;21.20;92.10;;;;;;5071238;28;20124;-73
2023/05/28 08:49:53;;;;;;;23.20;4.97;;;21.40;91.20;;;;;;5071901;28;20035;-73
2023/05/28 08:52:20;;;;;;;15.55;5.15;;;21.30;91.90;;;;;;5069456;28;20035;-73
2023/05/28 08:54:47;;;;;;;18.63;4.93;;;21.50;91.50;;;;;;5071534;28;20460;-73
2023/05/28 08:57:13;;;;;;;13.07;4.25;;;21.70;90.50;;;;;;5069525;28;20045;-73
2023/05/28 08:59:39;;;;;;;16.35;5.45;;;21.70;90.70;;;;;;5071541;28;20462;-73
2023/05/28 09:02:06;;;;;;;17.40;5.03;;;21.70;89.20;;;;;;5069523;28;20052;-74
2023/05/28 09:04:31;;;;;;;19.08;5.70;;;22.00;90.60;;;;;;5071404;28;20377;-73
2023/05/28 09:06:57;;;;;;;16.17;6.10;;;22.10;89.00;;;;;;5071467;28;20040;-73
2023/05/28 09:09:24;;;;;;;13.52;5.32;;;22.00;86.00;;;;;;5069090;28;20109;-73
2023/05/28 09:11:49;;;;;;;16.98;5.43;;;22.20;87.40;;;;;;5071462;28;20044;-74
2023/05/28 09:14:19;;;;;;;18.13;5.40;;;22.30;89.60;;;;;;5070650;28;20038;-74
2023/05/28 09:16:45;;;;;;;10.33;5.03;;;22.60;90.40;;;;;;5071009;28;20477;-73
2023/05/28 09:19:15;;;;;;;13.60;5.57;;;22.50;85.50;;;;;;5069141;28;20112;-74
2023/05/28 09:22:03;;;;;;;14.95;5.32;;;22.40;87.40;;;;;;5071313;28;20107;-73
2023/05/28 09:24:30;;;;;;;16.48;4.85;;;22.40;86.30;;;;;;5070847;28;20025;-75
2023/05/28 09:26:57;;;;;;;12.95;5.28;;;22.50;87.80;;;;;;5069559;28;20037;-74
2023/05/28 09:29:26;;;;;;;16.67;5.03;;;22.60;89.10;;;;;;5070406;28;20039;-73
2023/05/28 09:31:56;;;;;;;13.40;5.15;;;22.70;83.70;;;;;;5069790;28;20025;-73
2023/05/28 09:34:31;;;;;;;13.18;5.10;;;22.80;83.30;;;;;;5070484;28;20075;-74
2023/05/28 09:37:04;;;;;;;10.10;4.65;;;23.00;82.00;;;;;;5071004;28;20663;-73
2023/05/28 09:39:31;;;;;;;11.23;5.07;;;23.10;78.20;;;;;;5070670;28;20056;-74
2023/05/28 09:42:09;;;;;;;15.98;5.82;;;22.90;71.60;;;;;;5071087;28;20036;-73
2023/05/28 09:44:36;;;;;;;14.68;5.82;;;22.80;71.50;;;;;;5071244;28;20502;-73
2023/05/28 09:47:15;;;;;;;14.90;5.05;;;23.10;72.70;;;;;;5070932;28;20028;-72
2023/05/28 09:49:44;;;;;;;11.68;5.13;;;23.00;73.40;;;;;;5070877;28;20111;-73
2023/05/28 09:52:14;;;;;;;15.80;5.50;;;23.10;75.00;;;;;;5069796;28;20067;-73
2023/05/28 09:54:41;;;;;;;13.75;4.70;;;23.10;72.30;;;;;;5070485;28;20028;-73
2023/05/28 09:57:09;;;;;;;10.18;4.63;;;23.10;67.50;;;;;;5070096;28;20040;-72
2023/05/28 09:59:38;;;;;;;11.60;4.45;;;23.00;64.50;;;;;;5070829;28;20441;-73
2023/05/28 10:02:43;;;;;;;11.55;5.28;;;23.00;63.20;;;;;;5070408;28;20040;-73
2023/05/28 10:05:12;;;;;;;13.30;4.47;;;22.80;61.80;;;;;;5069869;28;20020;-73
2023/05/28 10:07:44;;;;;;;10.73;4.83;;;22.90;63.10;;;;;;5070525;28;20051;-72
2023/05/28 10:10:14;;;;;;;11.90;5.00;;;23.10;63.60;;;;;;5069640;28;20381;-74
2023/05/28 10:12:40;;;;;;;10.63;4.60;;;23.30;69.40;;;;;;5068960;28;20044;-73
2023/05/28 10:15:07;;;;;;;9.40;5.00;;;23.20;64.50;;;;;;5069809;28;20055;-74
2023/05/28 10:17:33;;;;;;;11.00;4.85;;;23.20;65.80;;;;;;5070103;28;20033;-73
2023/05/28 10:19:59;;;;;;;11.30;4.45;;;22.90;68.20;;;;;;5070242;28;20029;-73
2023/05/28 10:22:24;;;;;;;13.52;4.85;;;23.20;71.90;;;;;;5069466;28;20047;-73
2023/05/28 10:24:51;;;;;;;13.45;4.80;;;23.70;69.20;;;;;;5070173;28;20461;-73
2023/05/28 10:27:18;;;;;;;12.40;5.00;;;24.00;72.40;;;;;;5067960;28;20056;-73
2023/05/28 10:29:46;;;;;;;15.18;5.32;;;24.10;65.00;;;;;;5070041;28;20481;-73
2023/05/28 10:32:16;;;;;;;11.95;4.93;;;24.00;64.70;;;;;;5069272;28;20777;-74
2023/05/28 10:34:42;;;;;;;12.77;4.65;;;24.10;66.80;;;;;;5069909;28;20025;-71
2023/05/28 10:37:09;;;;;;;15.23;5.60;;;23.90;66.70;;;;;;5069611;28;20044;-74
2023/05/28 10:39:41;;;;;;;13.38;4.88;;;24.00;68.60;;;;;;5069535;28;20028;-73
2023/05/28 10:42:08;;;;;;;12.90;5.28;;;24.10;71.90;;;;;;5068226;28;20725;-74
2023/05/28 10:45:09;;;;;;;11.45;5.35;;;24.40;69.90;;;;;;5068067;28;20039;-72
2023/05/28 10:47:50;;;;;;;14.57;5.13;;;24.20;68.30;;;;;;5069791;28;20031;-73
2023/05/28 10:50:17;;;;;;;14.60;6.13;;;24.40;69.70;;;;;;5068909;28;20036;-72
2023/05/28 10:53:11;;;;;;;14.75;5.32;;;24.50;67.10;;;;;;5069541;28;20104;-73
2023/05/28 10:55:53;;;;;;;13.65;5.65;;;24.50;69.90;;;;;;5066418;28;20044;-73
2023/05/28 10:58:27;;;;;;;14.90;5.47;;;24.20;67.80;;;;;;5067327;28;20048;-72
2023/05/28 11:01:01;;;;;;;11.45;5.43;;;23.90;68.60;;;;;;5067985;28;20035;-73
2023/05/28 11:03:51;;;;;;;15.63;5.68;;;24.10;67.70;;;;;;5068596;28;20105;-74
2023/05/28 11:06:17;;;;;;;16.38;5.93;;;24.50;68.30;;;;;;5067987;28;20094;-74
2023/05/28 11:08:48;;;;;;;13.82;5.78;;;24.70;67.20;;;;;;5069250;28;20468;-74
2023/05/28 11:11:16;;;;;;;15.43;5.60;;;24.50;64.40;;;;;;5068364;28;20094;-74
2023/05/28 11:13:46;;;;;;;15.48;5.85;;;24.60;67.80;;;;;;5069235;28;20038;-73
2023/05/28 11:16:13;;;;;;;11.68;5.57;;;24.80;66.40;;;;;;5067108;28;20032;-75
2023/05/28 11:18:39;;;;;;;17.80;5.97;;;25.10;66.30;;;;;;5069140;28;20067;-73
2023/05/28 11:21:08;;;;;;;15.63;5.78;;;24.90;63.60;;;;;;5069083;28;20445;-74
2023/05/28 11:23:37;;;;;;;15.65;4.95;;;24.80;62.90;;;;;;5068415;28;20028;-73
2023/05/28 11:26:04;;;;;;;13.00;5.63;;;24.80;68.50;;;;;;5068988;28;20128;-74
2023/05/28 11:28:31;;;;;;;14.15;5.25;;;25.20;66.00;;;;;;5068140;28;20033;-73
2023/05/28 11:31:00;;;;;;;14.23;5.75;;;25.40;62.90;;;;;;5068996;28;20021;-73
2023/05/28 11:33:29;;;;;;;16.67;5.68;;;25.30;62.40;;;;;;5068119;28;20021;-73
2023/05/28 11:36:01;;;;;;;12.00;6.22;;;25.30;65.30;;;;;;5068858;28;20045;-74
2023/05/28 11:38:27;;;;;;;12.20;5.47;;;25.10;62.70;;;;;;5066617;28;20043;-73
2023/05/28 11:41:02;;;;;;;11.00;5.32;;;25.00;63.30;;;;;;5068742;28;20032;-72
2023/05/28 11:43:28;;;;;;;11.80;5.50;;;25.30;66.40;;;;;;5067795;28;20047;-73
2023/05/28 11:46:00;;;;;;;15.07;5.63;;;25.70;67.40;;;;;;5069048;28;20043;-74
2023/05/28 11:48:27;;;;;;;11.40;4.97;;;25.70;65.50;;;;;;5067768;28;20028;-74
2023/05/28 11:51:00;;;;;;;11.20;5.53;;;25.80;64.00;;;;;;5068732;28;20078;-72
2023/05/28 11:53:38;;;;;;;12.15;5.20;;;25.90;62.00;;;;;;5067656;28;20394;-72
2023/05/28 11:56:05;;;;;;;11.75;5.20;;;25.40;57.00;;;;;;5068543;28;20480;-73
2023/05/28 11:58:31;;;;;;;10.45;5.10;;;25.40;61.20;;;;;;5066181;28;20028;-73
2023/05/28 12:00:57;;;;;;;11.63;5.20;;;25.40;61.70;;;;;;5068377;28;20021;-73
2023/05/28 12:03:25;;;;;;;15.45;5.10;;;25.60;60.70;;;;;;5067307;28;20056;-73
2023/05/28 12:05:51;;;;;;;13.27;5.68;;;25.90;58.00;;;;;;5068800;28;20024;-71
2023/05/28 12:08:20;;;;;;;16.33;5.90;;;25.60;58.50;;;;;;5066404;28;20035;-73
2023/05/28 12:10:46;;;;;;;12.32;5.50;;;25.50;60.30;;;;;;5068362;28;20033;-73
2023/05/28 12:13:15;;;;;;;11.95;5.35;;;25.40;57.50;;;;;;5068510;28;20107;-72
2023/05/28 12:15:41;;;;;;;12.30;5.57;;;25.20;57.40;;;;;;5068649;28;20055;-73
2023/05/28 12:18:07;;;;;;;14.10;5.53;;;25.20;58.90;;;;;;5072431;28;20094;-73
2023/05/28 12:20:36;;;;;;;12.07;5.32;;;25.20;56.60;;;;;;5071536;28;20602;-73
2023/05/28 12:23:04;;;;;;;10.57;5.25;;;25.60;60.10;;;;;;5072444;28;20071;-73
2023/05/28 12:25:44;;;;;;;13.25;5.75;;;25.60;59.50;;;;;;5071354;28;20731;-73
2023/05/28 12:28:11;;;;;;;12.60;5.45;;;25.30;58.90;;;;;;5072349;28;20075;-73
2023/05/28 12:30:39;;;;;;;17.85;5.68;;;25.60;60.00;;;;;;5069842;28;20032;-72
2023/05/28 12:33:05;;;;;;;13.18;5.50;;;25.80;59.00;;;;;;5070877;28;20032;-73
2023/05/28 12:35:31;;;;;;;12.63;5.00;;;25.90;58.20;;;;;;5071321;28;20087;-73
2023/05/28 12:37:56;;;;;;;15.23;5.65;;;25.60;58.00;;;;;;5071895;28;20028;-74
2023/05/28 12:40:22;;;;;;;15.93;5.72;;;25.40;61.20;;;;;;5071657;28;20029;-73